• Join FlightAware (Why Join?)
  • Login
  • US Flag 
09:04AM EDT


 

Airport Tracker/Info


-or-


 

Live Flight TrackerFlight Track Log ✈ SKW4764 ✈ 30-Aug-2013 ✈ KSLC - KMSO

Flight Track Log - Related Links

Times and Time Zones

All times are in EDT time to prevent confusion due to time zone crossing. See the SKW4764 flight status page for this flight to view local times or setup timezone preferences in your user account.

Time Position Orientation Groundspeed Altitude Reporting Facility
EDT Latitude Longitude Course Direction KTS MPH feet Rate Location/Type
05:32PM 40.8197 -111.9806 13° North 191 220 4,900  Level Salt Lake Center
05:33PM 40.8611 -111.9833 357° North 205 236 6,200 1,860 Climbing Salt Lake Center
05:34PM 40.8897 -111.9889 352° North 212 244 7,200 1,560 Climbing Salt Lake Center
05:34PM 40.9261 -111.9956 352° North 240 276 7,800 1,320 Climbing Salt Lake Center
05:35PM 40.9619 -111.9989 356° North 260 299 8,600 1,860 Climbing Salt Lake Center
05:35PM 41.0114 -112.0033 356° North 269 310 9,900 1,920 Climbing Salt Lake Center
05:36PM 41.1985 -111.8352 43° Northeast  Level FlightAware Approximate
05:37PM 41.3009 -111.7658 37° Northeast  Level FlightAware Approximate
05:37PM 41.1106 -111.9800 10° North 291 335 12,600  Level Salt Lake Center
05:38PM 41.4015 -111.6896 13° North  Level FlightAware Approximate
05:38PM 41.1675 -111.8967 48° Northeast 299 344 14,500  Level Salt Lake Center
05:39PM 41.2353 -111.8192 41° Northeast 324 373 15,400 840 Climbing Salt Lake Center
05:40PM 41.3228 -111.7561 28° Northeast 356 410 16,300 1,080 Climbing Salt Lake Center
05:41PM 41.4369 -111.6917 23° Northeast 370 426 17,700 1,200 Climbing Salt Lake Center
05:42PM 41.5383 -111.6506 17° North 380 437 18,900 1,080 Climbing Salt Lake Center
05:43PM 41.6406 -111.6100 17° North 385 443 20,000 1,020 Climbing Salt Lake Center
05:44PM 41.7422 -111.5700 16° North 383 441 21,100 900 Climbing Salt Lake Center
05:45PM 41.8489 -111.5350 14° North 393 452 21,900 780 Climbing Salt Lake Center
05:46PM 41.9525 -111.5714 345° North 387 445 22,800 1,020 Climbing Salt Lake Center
05:47PM 42.0481 -111.6278 336° Northwest 382 440 24,100 1,500 Climbing Salt Lake Center
05:48PM 42.0994 -111.7642 297° West 343 395 25,900 1,200 Climbing Salt Lake Center
05:49PM 42.1356 -111.8803 293° West 338 389 26,700 780 Climbing Salt Lake Center
05:50PM 42.1711 -111.9994 292° West 344 396 27,500 780 Climbing Salt Lake Center
05:51PM 42.2222 -112.1111 302° West 352 405 28,300 720 Climbing Salt Lake Center
05:52PM 42.3158 -112.1639 337° Northwest 367 422 29,100 600 Climbing Salt Lake Center
05:53PM 42.4161 -112.2028 344° North 374 430 29,600 480 Climbing Salt Lake Center
05:54PM 42.5386 -112.2492 344° North 381 438 30,200 480 Climbing Salt Lake Center
05:55PM 42.6406 -112.2908 343° North 381 438 30,700 480 Climbing Salt Lake Center
05:56PM 42.7422 -112.3283 345° North 384 442 31,200 480 Climbing Salt Lake Center
05:57PM 42.8578 -112.3742 344° North 388 447 31,800 360 Climbing Salt Lake Center
05:58PM 42.9583 -112.4117 345° North 390 449 32,000 60 Climbing Salt Lake Center
05:59PM 43.0583 -112.4525 343° North 390 449 32,000  Level Salt Lake Center
06:00PM 43.1747 -112.4986 344° North 389 448 32,000  Level Salt Lake Center
06:02PM 43.2742 -112.5369 344° North 387 445 32,000  Level Salt Lake Center
06:03PM 43.3889 -112.5842 343° North 385 443 32,000  Level Salt Lake Center
06:04PM 43.4878 -112.6239 344° North 385 443 32,000  Level Salt Lake Center
06:05PM 43.6025 -112.6686 344° North 383 441 32,000  Level Salt Lake Center
06:06PM 43.6997 -112.7075 344° North 381 438 32,000  Level Salt Lake Center
06:07PM 43.7969 -112.7469 344° North 380 437 32,000  Level Salt Lake Center
06:08PM 43.9108 -112.7939 343° North 381 438 32,000  Level Salt Lake Center
06:09PM 44.0069 -112.8328 344° North 378 435 32,000  Level Salt Lake Center
06:10PM 44.1208 -112.8794 344° North 380 437 32,000  Level Salt Lake Center
06:11PM 44.2189 -112.9206 343° North 382 440 32,000  Level Salt Lake Center
06:12PM 44.3169 -112.9608 344° North 382 440 32,000  Level Salt Lake Center
06:13PM 44.4322 -113.0089 343° North 385 443 32,000  Level Salt Lake Center
06:14PM 44.5292 -113.0486 344° North 383 441 32,000  Level Salt Lake Center
06:15PM 44.6411 -113.0958 343° North 379 436 32,000  Level Salt Lake Center
06:16PM 44.7383 -113.1367 343° North 379 436 32,000  Level Salt Lake Center
06:17PM 44.8350 -113.1781 343° North 379 436 32,000  Level Salt Lake Center
06:18PM 44.9517 -113.2250 344° North 384 442 32,000  Level Salt Lake Center
06:19PM 45.0503 -113.2681 343° North 385 443 32,000  Level Salt Lake Center
06:20PM 45.1658 -113.3164 344° North 386 444 32,000  Level Salt Lake Center
06:21PM 45.2636 -113.3586 343° North 384 442 32,000 -540 Level Salt Lake Center
06:22PM 45.3789 -113.4061 344° North 386 444 30,900 -1,500 Descending Salt Lake Center
06:23PM 45.4756 -113.4458 344° North 381 438 29,000 -1,860 Descending Salt Lake Center
06:24PM 45.5686 -113.4869 343° North 372 428 27,200 -1,920 Descending Salt Lake Center
06:25PM 45.6736 -113.5322 343° North 356 410 25,100 -1,920 Descending Salt Lake Center
06:26PM 45.7608 -113.5717 342° North 347 399 23,300 -1,980 Descending Salt Lake Center
06:27PM 45.8622 -113.6164 343° North 342 394 21,100 -1,920 Descending Salt Lake Center
06:28PM 45.9422 -113.6472 345° North 341 392 19,400 -1,740 Descending Salt Lake Center
06:29PM 46.0311 -113.6886 342° North 338 389 17,600 -2,040 Descending Salt Lake Center
06:30PM 46.1344 -113.7347 343° North 329 379 15,300 -1,320 Descending Salt Lake Center
06:31PM 46.2192 -113.7767 341° North 300 345 15,000 -180 Descending Salt Lake Center
06:32PM 46.2922 -113.8092 343° North 278 320 15,000  Level Salt Lake Center
06:33PM 46.3686 -113.8400 344° North 285 328 15,000 -300 Level Salt Lake Center
06:34PM 46.4522 -113.8753 344° North 290 334 14,400 -1,260 Descending Salt Lake Center
06:35PM 46.5311 -113.9142 341° North 296 341 12,500 -1,860 Descending Salt Lake Center
06:36PM 46.6069 -113.9594 338° Northwest 295 339 10,700 -1,860 Descending Salt Lake Center
06:37PM 46.6794 -114.0136 333° Northwest 275 316 8,800 -1,800 Descending Salt Lake Center
06:39PM 46.7425 -114.0650 331° Northwest 263 303 7,000 -1,380 Descending Salt Lake Center
06:40PM 46.8058 -114.0472 11° North 242 278 6,000 -1,080 Descending Salt Lake Center
06:41PM 46.8525 -114.0019 34° Northeast 187 215 4,900 -1,020 Descending Salt Lake Center
06:42PM 46.8867 -114.0403 323° Northwest 153 176 3,900 -840 Descending Salt Lake Center
06:43PM 46.9111 -114.0836 310° West 140 161 3,200 -720 Descending Salt Lake Center